sensor_id;sensor_type;location;lat;lon;timestamp;P1;durP1;ratioP1;P2;durP2;ratioP2
24163;SDS011;12319;49.204;8.116;2023-12-04T00:01:31;11.23;;;5.67;;
24163;SDS011;12319;49.204;8.116;2023-12-04T00:03:57;13.25;;;5.47;;
24163;SDS011;12319;49.204;8.116;2023-12-04T00:06:23;12.60;;;5.63;;
24163;SDS011;12319;49.204;8.116;2023-12-04T00:08:49;12.40;;;5.40;;
24163;SDS011;12319;49.204;8.116;2023-12-04T00:11:14;13.93;;;5.87;;
24163;SDS011;12319;49.204;8.116;2023-12-04T00:13:40;13.55;;;5.43;;
24163;SDS011;12319;49.204;8.116;2023-12-04T00:16:05;13.07;;;5.50;;
24163;SDS011;12319;49.204;8.116;2023-12-04T00:18:31;14.88;;;5.47;;
24163;SDS011;12319;49.204;8.116;2023-12-04T00:20:57;14.53;;;5.90;;
24163;SDS011;12319;49.204;8.116;2023-12-04T00:23:22;12.53;;;5.50;;
24163;SDS011;12319;49.204;8.116;2023-12-04T00:25:48;14.90;;;6.05;;
24163;SDS011;12319;49.204;8.116;2023-12-04T00:28:13;15.20;;;5.63;;
24163;SDS011;12319;49.204;8.116;2023-12-04T00:30:39;16.50;;;6.40;;
24163;SDS011;12319;49.204;8.116;2023-12-04T00:33:05;17.05;;;5.82;;
24163;SDS011;12319;49.204;8.116;2023-12-04T00:35:30;13.47;;;5.60;;
24163;SDS011;12319;49.204;8.116;2023-12-04T00:37:56;15.57;;;5.82;;
24163;SDS011;12319;49.204;8.116;2023-12-04T00:40:21;13.90;;;5.60;;
24163;SDS011;12319;49.204;8.116;2023-12-04T00:42:47;12.83;;;5.63;;
24163;SDS011;12319;49.204;8.116;2023-12-04T00:45:12;14.03;;;5.67;;
24163;SDS011;12319;49.204;8.116;2023-12-04T00:47:38;11.30;;;5.38;;
24163;SDS011;12319;49.204;8.116;2023-12-04T00:50:03;12.57;;;5.53;;
24163;SDS011;12319;49.204;8.116;2023-12-04T00:52:29;11.95;;;5.13;;
24163;SDS011;12319;49.204;8.116;2023-12-04T00:54:55;11.60;;;4.67;;
24163;SDS011;12319;49.204;8.116;2023-12-04T00:57:20;14.83;;;5.77;;
24163;SDS011;12319;49.204;8.116;2023-12-04T00:59:46;12.75;;;5.05;;
24163;SDS011;12319;49.204;8.116;2023-12-04T01:02:11;12.03;;;4.90;;
24163;SDS011;12319;49.204;8.116;2023-12-04T01:04:39;12.30;;;4.93;;
24163;SDS011;12319;49.204;8.116;2023-12-04T01:07:06;12.27;;;4.70;;
24163;SDS011;12319;49.204;8.116;2023-12-04T01:09:34;11.98;;;4.90;;
24163;SDS011;12319;49.204;8.116;2023-12-04T01:12:00;11.73;;;5.28;;
24163;SDS011;12319;49.204;8.116;2023-12-04T01:14:26;11.83;;;5.13;;
24163;SDS011;12319;49.204;8.116;2023-12-04T01:16:51;15.40;;;5.17;;
24163;SDS011;12319;49.204;8.116;2023-12-04T01:19:17;12.70;;;4.90;;
24163;SDS011;12319;49.204;8.116;2023-12-04T01:21:42;13.57;;;5.27;;
24163;SDS011;12319;49.204;8.116;2023-12-04T01:24:08;9.23;;;4.17;;
24163;SDS011;12319;49.204;8.116;2023-12-04T01:26:33;9.93;;;4.45;;
24163;SDS011;12319;49.204;8.116;2023-12-04T01:28:59;9.97;;;4.60;;
24163;SDS011;12319;49.204;8.116;2023-12-04T01:31:24;9.57;;;4.73;;
24163;SDS011;12319;49.204;8.116;2023-12-04T01:33:50;9.90;;;4.50;;
24163;SDS011;12319;49.204;8.116;2023-12-04T01:36:15;11.33;;;4.23;;
24163;SDS011;12319;49.204;8.116;2023-12-04T01:38:41;10.83;;;4.70;;
24163;SDS011;12319;49.204;8.116;2023-12-04T01:41:06;8.50;;;4.30;;
24163;SDS011;12319;49.204;8.116;2023-12-04T01:43:32;10.43;;;4.40;;
24163;SDS011;12319;49.204;8.116;2023-12-04T01:45:58;10.17;;;4.30;;
24163;SDS011;12319;49.204;8.116;2023-12-04T01:48:25;9.48;;;3.90;;
24163;SDS011;12319;49.204;8.116;2023-12-04T01:50:53;8.82;;;4.35;;
24163;SDS011;12319;49.204;8.116;2023-12-04T01:53:20;8.97;;;4.40;;
24163;SDS011;12319;49.204;8.116;2023-12-04T01:55:46;8.48;;;4.00;;
24163;SDS011;12319;49.204;8.116;2023-12-04T01:58:11;8.43;;;4.00;;
24163;SDS011;12319;49.204;8.116;2023-12-04T02:00:37;7.45;;;4.07;;
24163;SDS011;12319;49.204;8.116;2023-12-04T02:03:03;10.88;;;4.70;;
24163;SDS011;12319;49.204;8.116;2023-12-04T02:05:29;9.63;;;4.43;;
24163;SDS011;12319;49.204;8.116;2023-12-04T02:07:56;9.25;;;4.43;;
24163;SDS011;12319;49.204;8.116;2023-12-04T02:10:22;10.65;;;4.55;;
24163;SDS011;12319;49.204;8.116;2023-12-04T02:12:48;8.50;;;3.70;;
24163;SDS011;12319;49.204;8.116;2023-12-04T02:15:15;9.32;;;4.13;;
24163;SDS011;12319;49.204;8.116;2023-12-04T02:17:41;10.20;;;4.60;;
24163;SDS011;12319;49.204;8.116;2023-12-04T02:20:12;9.02;;;4.57;;
24163;SDS011;12319;49.204;8.116;2023-12-04T02:22:38;10.23;;;4.43;;
24163;SDS011;12319;49.204;8.116;2023-12-04T02:25:04;8.17;;;3.87;;
24163;SDS011;12319;49.204;8.116;2023-12-04T02:27:36;8.32;;;4.20;;
24163;SDS011;12319;49.204;8.116;2023-12-04T02:30:05;9.60;;;4.18;;
24163;SDS011;12319;49.204;8.116;2023-12-04T02:32:36;10.35;;;4.55;;
24163;SDS011;12319;49.204;8.116;2023-12-04T02:35:07;12.87;;;5.07;;
24163;SDS011;12319;49.204;8.116;2023-12-04T02:37:34;10.27;;;4.90;;
24163;SDS011;12319;49.204;8.116;2023-12-04T02:40:00;10.80;;;4.82;;
24163;SDS011;12319;49.204;8.116;2023-12-04T02:42:26;10.30;;;4.57;;
24163;SDS011;12319;49.204;8.116;2023-12-04T02:44:51;8.03;;;4.27;;
24163;SDS011;12319;49.204;8.116;2023-12-04T02:47:17;9.63;;;4.50;;
24163;SDS011;12319;49.204;8.116;2023-12-04T02:49:43;12.07;;;4.73;;
24163;SDS011;12319;49.204;8.116;2023-12-04T02:52:09;9.15;;;4.50;;
24163;SDS011;12319;49.204;8.116;2023-12-04T02:54:34;11.57;;;4.67;;
24163;SDS011;12319;49.204;8.116;2023-12-04T02:57:00;9.95;;;4.35;;
24163;SDS011;12319;49.204;8.116;2023-12-04T02:59:25;7.43;;;3.70;;
24163;SDS011;12319;49.204;8.116;2023-12-04T03:01:51;8.53;;;3.87;;
24163;SDS011;12319;49.204;8.116;2023-12-04T03:04:16;8.97;;;4.53;;
24163;SDS011;12319;49.204;8.116;2023-12-04T03:06:43;8.77;;;4.20;;
24163;SDS011;12319;49.204;8.116;2023-12-04T03:09:09;9.87;;;4.50;;
24163;SDS011;12319;49.204;8.116;2023-12-04T03:11:35;10.27;;;4.45;;
24163;SDS011;12319;49.204;8.116;2023-12-04T03:14:00;8.50;;;3.83;;
24163;SDS011;12319;49.204;8.116;2023-12-04T03:16:26;8.65;;;4.25;;
24163;SDS011;12319;49.204;8.116;2023-12-04T03:18:52;7.57;;;3.80;;
24163;SDS011;12319;49.204;8.116;2023-12-04T03:21:17;8.77;;;4.05;;
24163;SDS011;12319;49.204;8.116;2023-12-04T03:23:43;8.68;;;4.32;;
24163;SDS011;12319;49.204;8.116;2023-12-04T03:26:08;10.20;;;4.57;;
24163;SDS011;12319;49.204;8.116;2023-12-04T03:28:34;11.00;;;4.60;;
24163;SDS011;12319;49.204;8.116;2023-12-04T03:31:00;8.48;;;4.00;;
24163;SDS011;12319;49.204;8.116;2023-12-04T03:33:25;9.47;;;4.33;;
24163;SDS011;12319;49.204;8.116;2023-12-04T03:35:51;11.40;;;4.60;;
24163;SDS011;12319;49.204;8.116;2023-12-04T03:38:16;10.68;;;4.20;;
24163;SDS011;12319;49.204;8.116;2023-12-04T03:40:41;8.53;;;4.13;;
24163;SDS011;12319;49.204;8.116;2023-12-04T03:43:07;10.37;;;4.53;;
24163;SDS011;12319;49.204;8.116;2023-12-04T03:45:32;9.77;;;4.33;;
24163;SDS011;12319;49.204;8.116;2023-12-04T03:47:58;8.38;;;3.88;;
24163;SDS011;12319;49.204;8.116;2023-12-04T03:50:23;7.47;;;3.70;;
24163;SDS011;12319;49.204;8.116;2023-12-04T03:52:49;8.50;;;3.83;;
24163;SDS011;12319;49.204;8.116;2023-12-04T03:55:15;10.85;;;4.63;;
24163;SDS011;12319;49.204;8.116;2023-12-04T03:57:41;9.25;;;3.88;;
24163;SDS011;12319;49.204;8.116;2023-12-04T04:00:08;10.60;;;4.00;;
24163;SDS011;12319;49.204;8.116;2023-12-04T04:02:35;7.90;;;3.93;;
24163;SDS011;12319;49.204;8.116;2023-12-04T04:05:00;9.82;;;4.38;;
24163;SDS011;12319;49.204;8.116;2023-12-04T04:07:26;7.70;;;4.00;;
24163;SDS011;12319;49.204;8.116;2023-12-04T04:09:51;10.02;;;4.20;;
24163;SDS011;12319;49.204;8.116;2023-12-04T04:12:17;8.57;;;4.20;;
24163;SDS011;12319;49.204;8.116;2023-12-04T04:14:42;9.13;;;4.03;;
24163;SDS011;12319;49.204;8.116;2023-12-04T04:17:08;9.97;;;4.20;;
24163;SDS011;12319;49.204;8.116;2023-12-04T04:19:33;11.55;;;4.25;;
24163;SDS011;12319;49.204;8.116;2023-12-04T04:21:59;7.90;;;4.13;;
24163;SDS011;12319;49.204;8.116;2023-12-04T04:24:24;7.40;;;3.73;;
24163;SDS011;12319;49.204;8.116;2023-12-04T04:26:50;8.57;;;4.28;;
24163;SDS011;12319;49.204;8.116;2023-12-04T04:29:15;10.13;;;3.80;;
24163;SDS011;12319;49.204;8.116;2023-12-04T04:31:41;7.40;;;3.80;;
24163;SDS011;12319;49.204;8.116;2023-12-04T04:34:06;9.13;;;3.90;;
24163;SDS011;12319;49.204;8.116;2023-12-04T04:36:32;7.75;;;3.95;;
24163;SDS011;12319;49.204;8.116;2023-12-04T04:38:57;9.23;;;4.47;;
24163;SDS011;12319;49.204;8.116;2023-12-04T04:41:23;8.23;;;3.97;;
24163;SDS011;12319;49.204;8.116;2023-12-04T04:43:48;8.18;;;4.57;;
24163;SDS011;12319;49.204;8.116;2023-12-04T04:46:14;9.63;;;4.43;;
24163;SDS011;12319;49.204;8.116;2023-12-04T04:48:40;10.40;;;4.47;;
24163;SDS011;12319;49.204;8.116;2023-12-04T04:51:06;7.80;;;4.25;;
24163;SDS011;12319;49.204;8.116;2023-12-04T04:53:31;9.93;;;4.00;;
24163;SDS011;12319;49.204;8.116;2023-12-04T04:55:57;8.05;;;3.88;;
24163;SDS011;12319;49.204;8.116;2023-12-04T04:58:23;7.43;;;4.00;;
24163;SDS011;12319;49.204;8.116;2023-12-04T05:00:48;8.73;;;3.93;;
24163;SDS011;12319;49.204;8.116;2023-12-04T05:03:14;8.80;;;3.72;;
24163;SDS011;12319;49.204;8.116;2023-12-04T05:05:40;7.47;;;4.15;;
24163;SDS011;12319;49.204;8.116;2023-12-04T05:08:05;7.03;;;3.47;;
24163;SDS011;12319;49.204;8.116;2023-12-04T05:10:31;8.77;;;4.13;;
24163;SDS011;12319;49.204;8.116;2023-12-04T05:12:56;8.68;;;4.18;;
24163;SDS011;12319;49.204;8.116;2023-12-04T05:15:22;9.33;;;3.97;;
24163;SDS011;12319;49.204;8.116;2023-12-04T05:17:47;9.90;;;4.00;;
24163;SDS011;12319;49.204;8.116;2023-12-04T05:20:13;6.97;;;3.37;;
24163;SDS011;12319;49.204;8.116;2023-12-04T05:22:39;9.20;;;4.00;;
24163;SDS011;12319;49.204;8.116;2023-12-04T05:25:05;9.27;;;4.07;;
24163;SDS011;12319;49.204;8.116;2023-12-04T05:27:31;10.10;;;4.03;;
24163;SDS011;12319;49.204;8.116;2023-12-04T05:29:56;6.55;;;3.53;;
24163;SDS011;12319;49.204;8.116;2023-12-04T05:32:22;7.88;;;3.70;;
24163;SDS011;12319;49.204;8.116;2023-12-04T05:34:47;6.83;;;3.47;;
24163;SDS011;12319;49.204;8.116;2023-12-04T05:37:13;7.83;;;4.00;;
24163;SDS011;12319;49.204;8.116;2023-12-04T05:39:38;6.45;;;3.58;;
24163;SDS011;12319;49.204;8.116;2023-12-04T05:42:04;9.43;;;3.57;;
24163;SDS011;12319;49.204;8.116;2023-12-04T05:44:30;8.47;;;3.67;;
24163;SDS011;12319;49.204;8.116;2023-12-04T05:46:56;8.00;;;4.15;;
24163;SDS011;12319;49.204;8.116;2023-12-04T05:49:22;8.27;;;3.80;;
24163;SDS011;12319;49.204;8.116;2023-12-04T05:51:47;8.02;;;3.60;;
24163;SDS011;12319;49.204;8.116;2023-12-04T05:54:13;7.37;;;3.27;;
24163;SDS011;12319;49.204;8.116;2023-12-04T05:56:38;7.90;;;3.80;;
24163;SDS011;12319;49.204;8.116;2023-12-04T05:59:04;7.38;;;3.35;;
24163;SDS011;12319;49.204;8.116;2023-12-04T06:01:29;7.73;;;3.90;;
24163;SDS011;12319;49.204;8.116;2023-12-04T06:03:55;7.13;;;3.57;;
24163;SDS011;12319;49.204;8.116;2023-12-04T06:06:20;8.77;;;3.90;;
24163;SDS011;12319;49.204;8.116;2023-12-04T06:08:46;8.43;;;4.00;;
24163;SDS011;12319;49.204;8.116;2023-12-04T06:11:11;7.33;;;3.83;;
24163;SDS011;12319;49.204;8.116;2023-12-04T06:13:37;8.27;;;3.40;;
24163;SDS011;12319;49.204;8.116;2023-12-04T06:16:02;8.03;;;3.77;;
24163;SDS011;12319;49.204;8.116;2023-12-04T06:18:28;7.60;;;3.70;;
24163;SDS011;12319;49.204;8.116;2023-12-04T06:20:54;7.53;;;3.93;;
24163;SDS011;12319;49.204;8.116;2023-12-04T06:23:20;8.47;;;4.60;;
24163;SDS011;12319;49.204;8.116;2023-12-04T06:25:45;8.70;;;4.10;;
24163;SDS011;12319;49.204;8.116;2023-12-04T06:28:11;7.65;;;3.50;;
24163;SDS011;12319;49.204;8.116;2023-12-04T06:30:37;8.30;;;4.30;;
24163;SDS011;12319;49.204;8.116;2023-12-04T06:33:03;8.88;;;4.30;;
24163;SDS011;12319;49.204;8.116;2023-12-04T06:35:29;9.18;;;4.43;;
24163;SDS011;12319;49.204;8.116;2023-12-04T06:37:55;9.87;;;4.30;;
24163;SDS011;12319;49.204;8.116;2023-12-04T06:40:25;9.57;;;4.20;;
24163;SDS011;12319;49.204;8.116;2023-12-04T06:42:51;7.70;;;3.83;;
24163;SDS011;12319;49.204;8.116;2023-12-04T06:45:17;9.93;;;4.57;;
24163;SDS011;12319;49.204;8.116;2023-12-04T06:47:44;10.50;;;4.60;;
24163;SDS011;12319;49.204;8.116;2023-12-04T06:50:10;8.57;;;4.32;;
24163;SDS011;12319;49.204;8.116;2023-12-04T06:52:36;10.37;;;4.43;;
24163;SDS011;12319;49.204;8.116;2023-12-04T06:55:01;8.57;;;4.60;;
24163;SDS011;12319;49.204;8.116;2023-12-04T06:57:27;8.80;;;3.90;;
24163;SDS011;12319;49.204;8.116;2023-12-04T06:59:52;8.70;;;4.23;;
24163;SDS011;12319;49.204;8.116;2023-12-04T07:02:18;10.90;;;4.40;;
24163;SDS011;12319;49.204;8.116;2023-12-04T07:04:43;7.23;;;3.60;;
24163;SDS011;12319;49.204;8.116;2023-12-04T07:07:09;8.85;;;4.15;;
24163;SDS011;12319;49.204;8.116;2023-12-04T07:09:34;10.43;;;4.83;;
24163;SDS011;12319;49.204;8.116;2023-12-04T07:12:00;10.17;;;4.43;;
24163;SDS011;12319;49.204;8.116;2023-12-04T07:14:27;8.95;;;4.20;;
24163;SDS011;12319;49.204;8.116;2023-12-04T07:16:53;8.63;;;4.35;;
24163;SDS011;12319;49.204;8.116;2023-12-04T07:19:18;7.93;;;3.53;;
24163;SDS011;12319;49.204;8.116;2023-12-04T07:21:45;10.32;;;4.25;;
24163;SDS011;12319;49.204;8.116;2023-12-04T07:24:10;10.67;;;4.47;;
24163;SDS011;12319;49.204;8.116;2023-12-04T07:26:36;9.97;;;4.30;;
24163;SDS011;12319;49.204;8.116;2023-12-04T07:29:02;9.27;;;4.40;;
24163;SDS011;12319;49.204;8.116;2023-12-04T07:31:28;8.88;;;4.32;;
24163;SDS011;12319;49.204;8.116;2023-12-04T07:33:53;10.27;;;4.27;;
24163;SDS011;12319;49.204;8.116;2023-12-04T07:36:19;9.65;;;4.30;;
24163;SDS011;12319;49.204;8.116;2023-12-04T07:38:45;10.80;;;4.30;;
24163;SDS011;12319;49.204;8.116;2023-12-04T07:41:11;7.13;;;3.80;;
24163;SDS011;12319;49.204;8.116;2023-12-04T07:43:36;8.38;;;4.13;;
24163;SDS011;12319;49.204;8.116;2023-12-04T07:46:02;7.43;;;3.60;;
24163;SDS011;12319;49.204;8.116;2023-12-04T07:48:28;11.55;;;4.28;;
24163;SDS011;12319;49.204;8.116;2023-12-04T07:50:55;7.00;;;3.55;;
24163;SDS011;12319;49.204;8.116;2023-12-04T07:53:20;8.80;;;4.40;;
24163;SDS011;12319;49.204;8.116;2023-12-04T07:55:46;8.52;;;4.30;;
24163;SDS011;12319;49.204;8.116;2023-12-04T07:58:13;8.93;;;4.20;;
24163;SDS011;12319;49.204;8.116;2023-12-04T08:00:38;11.20;;;4.63;;
24163;SDS011;12319;49.204;8.116;2023-12-04T08:03:04;8.13;;;4.00;;
24163;SDS011;12319;49.204;8.116;2023-12-04T08:05:29;7.87;;;3.83;;
24163;SDS011;12319;49.204;8.116;2023-12-04T08:07:56;9.15;;;4.30;;
24163;SDS011;12319;49.204;8.116;2023-12-04T08:10:22;9.13;;;4.22;;
24163;SDS011;12319;49.204;8.116;2023-12-04T08:12:48;11.60;;;4.40;;
24163;SDS011;12319;49.204;8.116;2023-12-04T08:15:13;12.20;;;4.20;;
24163;SDS011;12319;49.204;8.116;2023-12-04T08:17:39;8.65;;;4.10;;
24163;SDS011;12319;49.204;8.116;2023-12-04T08:20:05;8.73;;;4.25;;
24163;SDS011;12319;49.204;8.116;2023-12-04T08:22:31;8.70;;;3.97;;
24163;SDS011;12319;49.204;8.116;2023-12-04T08:24:57;7.75;;;3.88;;
24163;SDS011;12319;49.204;8.116;2023-12-04T08:27:23;7.23;;;3.60;;
24163;SDS011;12319;49.204;8.116;2023-12-04T08:29:49;7.05;;;3.45;;
24163;SDS011;12319;49.204;8.116;2023-12-04T08:32:15;6.68;;;3.50;;
24163;SDS011;12319;49.204;8.116;2023-12-04T08:34:40;8.17;;;4.23;;
24163;SDS011;12319;49.204;8.116;2023-12-04T08:37:06;11.00;;;4.57;;
24163;SDS011;12319;49.204;8.116;2023-12-04T08:39:31;7.97;;;3.80;;
24163;SDS011;12319;49.204;8.116;2023-12-04T08:41:57;7.23;;;4.00;;
24163;SDS011;12319;49.204;8.116;2023-12-04T08:44:22;8.57;;;3.70;;
24163;SDS011;12319;49.204;8.116;2023-12-04T08:46:48;7.50;;;3.65;;
24163;SDS011;12319;49.204;8.116;2023-12-04T08:49:14;7.40;;;3.67;;
24163;SDS011;12319;49.204;8.116;2023-12-04T08:51:39;7.43;;;3.70;;
24163;SDS011;12319;49.204;8.116;2023-12-04T08:54:06;6.73;;;3.40;;
24163;SDS011;12319;49.204;8.116;2023-12-04T08:56:32;6.40;;;3.20;;
24163;SDS011;12319;49.204;8.116;2023-12-04T08:58:57;6.50;;;3.27;;
24163;SDS011;12319;49.204;8.116;2023-12-04T09:01:23;7.70;;;3.70;;
24163;SDS011;12319;49.204;8.116;2023-12-04T09:03:49;7.38;;;3.45;;
24163;SDS011;12319;49.204;8.116;2023-12-04T09:06:16;7.88;;;3.72;;
24163;SDS011;12319;49.204;8.116;2023-12-04T09:08:42;10.43;;;4.03;;
24163;SDS011;12319;49.204;8.116;2023-12-04T09:11:08;7.05;;;3.50;;
24163;SDS011;12319;49.204;8.116;2023-12-04T09:13:33;8.57;;;3.57;;
24163;SDS011;12319;49.204;8.116;2023-12-04T09:15:59;8.27;;;3.90;;
24163;SDS011;12319;49.204;8.116;2023-12-04T09:18:25;7.78;;;3.70;;
24163;SDS011;12319;49.204;8.116;2023-12-04T09:20:50;9.37;;;3.70;;
24163;SDS011;12319;49.204;8.116;2023-12-04T09:23:16;10.85;;;4.20;;
24163;SDS011;12319;49.204;8.116;2023-12-04T09:25:42;6.50;;;3.67;;
24163;SDS011;12319;49.204;8.116;2023-12-04T09:28:08;7.45;;;3.80;;
24163;SDS011;12319;49.204;8.116;2023-12-04T09:30:33;6.57;;;3.43;;
24163;SDS011;12319;49.204;8.116;2023-12-04T09:33:00;10.52;;;4.20;;
24163;SDS011;12319;49.204;8.116;2023-12-04T09:35:26;7.07;;;3.60;;
24163;SDS011;12319;49.204;8.116;2023-12-04T09:37:51;7.60;;;3.60;;
24163;SDS011;12319;49.204;8.116;2023-12-04T09:40:17;8.85;;;4.07;;
24163;SDS011;12319;49.204;8.116;2023-12-04T09:42:44;7.15;;;3.33;;
24163;SDS011;12319;49.204;8.116;2023-12-04T09:45:10;6.90;;;3.57;;
24163;SDS011;12319;49.204;8.116;2023-12-04T09:47:37;7.63;;;3.70;;
24163;SDS011;12319;49.204;8.116;2023-12-04T09:50:03;7.13;;;3.50;;
24163;SDS011;12319;49.204;8.116;2023-12-04T09:52:30;5.80;;;3.05;;
24163;SDS011;12319;49.204;8.116;2023-12-04T09:54:56;7.55;;;3.72;;
24163;SDS011;12319;49.204;8.116;2023-12-04T09:57:22;7.53;;;3.67;;
24163;SDS011;12319;49.204;8.116;2023-12-04T09:59:49;7.40;;;3.72;;
24163;SDS011;12319;49.204;8.116;2023-12-04T10:02:17;8.10;;;3.88;;
24163;SDS011;12319;49.204;8.116;2023-12-04T10:04:42;7.67;;;4.10;;
24163;SDS011;12319;49.204;8.116;2023-12-04T10:07:08;8.30;;;3.80;;
24163;SDS011;12319;49.204;8.116;2023-12-04T10:09:33;7.67;;;3.83;;
24163;SDS011;12319;49.204;8.116;2023-12-04T10:11:59;6.90;;;3.70;;
24163;SDS011;12319;49.204;8.116;2023-12-04T10:14:25;6.10;;;3.40;;
24163;SDS011;12319;49.204;8.116;2023-12-04T10:16:50;8.37;;;4.00;;
24163;SDS011;12319;49.204;8.116;2023-12-04T10:19:19;6.82;;;3.63;;
24163;SDS011;12319;49.204;8.116;2023-12-04T10:21:45;8.38;;;3.60;;
24163;SDS011;12319;49.204;8.116;2023-12-04T10:24:12;7.90;;;3.95;;
24163;SDS011;12319;49.204;8.116;2023-12-04T10:26:38;6.73;;;3.43;;
24163;SDS011;12319;49.204;8.116;2023-12-04T10:29:16;6.75;;;3.40;;
24163;SDS011;12319;49.204;8.116;2023-12-04T10:31:41;7.30;;;3.43;;
24163;SDS011;12319;49.204;8.116;2023-12-04T10:34:07;6.60;;;3.30;;
24163;SDS011;12319;49.204;8.116;2023-12-04T10:36:34;7.97;;;3.80;;
24163;SDS011;12319;49.204;8.116;2023-12-04T10:39:01;8.13;;;3.58;;
24163;SDS011;12319;49.204;8.116;2023-12-04T10:41:30;6.65;;;3.10;;
24163;SDS011;12319;49.204;8.116;2023-12-04T10:43:59;8.32;;;3.53;;
24163;SDS011;12319;49.204;8.116;2023-12-04T10:46:25;6.77;;;3.47;;
24163;SDS011;12319;49.204;8.116;2023-12-04T10:48:52;7.38;;;3.40;;
24163;SDS011;12319;49.204;8.116;2023-12-04T10:51:18;7.78;;;4.20;;
24163;SDS011;12319;49.204;8.116;2023-12-04T10:53:44;8.45;;;3.88;;
24163;SDS011;12319;49.204;8.116;2023-12-04T10:56:10;6.20;;;3.67;;
24163;SDS011;12319;49.204;8.116;2023-12-04T10:58:47;7.38;;;3.65;;
24163;SDS011;12319;49.204;8.116;2023-12-04T11:01:15;5.60;;;3.15;;
24163;SDS011;12319;49.204;8.116;2023-12-04T11:03:47;6.53;;;3.23;;
24163;SDS011;12319;49.204;8.116;2023-12-04T11:06:16;8.77;;;3.83;;
24163;SDS011;12319;49.204;8.116;2023-12-04T11:08:43;6.22;;;3.28;;
24163;SDS011;12319;49.204;8.116;2023-12-04T11:11:15;6.13;;;3.38;;
24163;SDS011;12319;49.204;8.116;2023-12-04T11:13:48;5.80;;;3.20;;
24163;SDS011;12319;49.204;8.116;2023-12-04T11:16:32;7.47;;;3.70;;
24163;SDS011;12319;49.204;8.116;2023-12-04T11:19:10;6.68;;;3.10;;
24163;SDS011;12319;49.204;8.116;2023-12-04T11:21:49;5.88;;;3.17;;
24163;SDS011;12319;49.204;8.116;2023-12-04T11:24:15;6.37;;;3.30;;
24163;SDS011;12319;49.204;8.116;2023-12-04T11:26:42;7.28;;;3.13;;
24163;SDS011;12319;49.204;8.116;2023-12-04T11:29:09;6.78;;;3.47;;
24163;SDS011;12319;49.204;8.116;2023-12-04T11:31:37;7.15;;;3.63;;
24163;SDS011;12319;49.204;8.116;2023-12-04T11:34:03;8.00;;;3.90;;
24163;SDS011;12319;49.204;8.116;2023-12-04T11:36:29;7.50;;;3.60;;
24163;SDS011;12319;49.204;8.116;2023-12-04T11:38:55;6.45;;;3.40;;
24163;SDS011;12319;49.204;8.116;2023-12-04T11:41:24;8.57;;;3.57;;
24163;SDS011;12319;49.204;8.116;2023-12-04T11:43:50;8.02;;;3.38;;
24163;SDS011;12319;49.204;8.116;2023-12-04T11:46:18;7.97;;;3.40;;
24163;SDS011;12319;49.204;8.116;2023-12-04T11:48:47;6.45;;;3.45;;
24163;SDS011;12319;49.204;8.116;2023-12-04T11:51:14;7.10;;;3.42;;
24163;SDS011;12319;49.204;8.116;2023-12-04T11:54:00;6.65;;;3.28;;
24163;SDS011;12319;49.204;8.116;2023-12-04T11:56:29;5.80;;;3.20;;
24163;SDS011;12319;49.204;8.116;2023-12-04T11:58:55;7.10;;;3.58;;
24163;SDS011;12319;49.204;8.116;2023-12-04T12:01:37;6.93;;;3.55;;
24163;SDS011;12319;49.204;8.116;2023-12-04T12:04:04;7.80;;;3.80;;
24163;SDS011;12319;49.204;8.116;2023-12-04T12:06:30;7.53;;;3.58;;
24163;SDS011;12319;49.204;8.116;2023-12-04T12:08:56;6.43;;;3.45;;
24163;SDS011;12319;49.204;8.116;2023-12-04T12:11:22;6.47;;;3.40;;
24163;SDS011;12319;49.204;8.116;2023-12-04T12:13:49;8.18;;;3.88;;
24163;SDS011;12319;49.204;8.116;2023-12-04T12:16:14;5.87;;;3.47;;
24163;SDS011;12319;49.204;8.116;2023-12-04T12:18:40;10.18;;;3.90;;
24163;SDS011;12319;49.204;8.116;2023-12-04T12:21:06;7.00;;;3.27;;
24163;SDS011;12319;49.204;8.116;2023-12-04T12:23:32;7.40;;;3.20;;
24163;SDS011;12319;49.204;8.116;2023-12-04T12:25:59;6.43;;;3.40;;
24163;SDS011;12319;49.204;8.116;2023-12-04T12:28:25;7.53;;;3.60;;
24163;SDS011;12319;49.204;8.116;2023-12-04T12:30:50;8.87;;;4.17;;
24163;SDS011;12319;49.204;8.116;2023-12-04T12:33:18;7.25;;;3.78;;
24163;SDS011;12319;49.204;8.116;2023-12-04T12:35:45;6.40;;;3.43;;
24163;SDS011;12319;49.204;8.116;2023-12-04T12:38:11;7.75;;;4.13;;
24163;SDS011;12319;49.204;8.116;2023-12-04T12:40:37;7.75;;;3.72;;
24163;SDS011;12319;49.204;8.116;2023-12-04T12:43:06;6.77;;;3.60;;
24163;SDS011;12319;49.204;8.116;2023-12-04T12:45:38;6.43;;;3.78;;
24163;SDS011;12319;49.204;8.116;2023-12-04T12:48:13;5.57;;;3.00;;
24163;SDS011;12319;49.204;8.116;2023-12-04T12:50:41;7.18;;;3.75;;
24163;SDS011;12319;49.204;8.116;2023-12-04T12:53:07;5.97;;;3.37;;
24163;SDS011;12319;49.204;8.116;2023-12-04T12:55:33;6.20;;;3.30;;
24163;SDS011;12319;49.204;8.116;2023-12-04T12:57:58;6.47;;;3.40;;
24163;SDS011;12319;49.204;8.116;2023-12-04T13:00:24;7.57;;;3.97;;
24163;SDS011;12319;49.204;8.116;2023-12-04T13:02:52;6.65;;;3.58;;
24163;SDS011;12319;49.204;8.116;2023-12-04T13:05:18;7.25;;;3.60;;
24163;SDS011;12319;49.204;8.116;2023-12-04T13:07:45;7.75;;;3.95;;
24163;SDS011;12319;49.204;8.116;2023-12-04T13:10:10;7.45;;;3.80;;
24163;SDS011;12319;49.204;8.116;2023-12-04T13:12:36;7.13;;;3.50;;
24163;SDS011;12319;49.204;8.116;2023-12-04T13:15:02;6.95;;;3.47;;
24163;SDS011;12319;49.204;8.116;2023-12-04T13:17:28;7.27;;;3.60;;
24163;SDS011;12319;49.204;8.116;2023-12-04T13:19:54;6.25;;;3.50;;
24163;SDS011;12319;49.204;8.116;2023-12-04T13:22:19;6.43;;;3.30;;
24163;SDS011;12319;49.204;8.116;2023-12-04T13:24:45;7.28;;;3.67;;
24163;SDS011;12319;49.204;8.116;2023-12-04T13:27:11;7.77;;;3.63;;
24163;SDS011;12319;49.204;8.116;2023-12-04T13:29:36;7.50;;;3.80;;
24163;SDS011;12319;49.204;8.116;2023-12-04T13:32:02;8.25;;;3.95;;
24163;SDS011;12319;49.204;8.116;2023-12-04T13:34:29;6.85;;;3.60;;
24163;SDS011;12319;49.204;8.116;2023-12-04T13:36:54;6.90;;;3.30;;
24163;SDS011;12319;49.204;8.116;2023-12-04T13:39:20;6.63;;;3.30;;
24163;SDS011;12319;49.204;8.116;2023-12-04T13:41:52;5.33;;;3.20;;
24163;SDS011;12319;49.204;8.116;2023-12-04T13:44:37;6.57;;;3.58;;
24163;SDS011;12319;49.204;8.116;2023-12-04T13:47:02;6.35;;;3.30;;
24163;SDS011;12319;49.204;8.116;2023-12-04T13:49:28;6.97;;;3.60;;
24163;SDS011;12319;49.204;8.116;2023-12-04T13:51:54;5.95;;;3.03;;
24163;SDS011;12319;49.204;8.116;2023-12-04T13:54:20;6.70;;;3.50;;
24163;SDS011;12319;49.204;8.116;2023-12-04T13:56:48;7.18;;;3.83;;
24163;SDS011;12319;49.204;8.116;2023-12-04T13:59:21;6.93;;;3.63;;
24163;SDS011;12319;49.204;8.116;2023-12-04T14:01:48;6.45;;;3.55;;
24163;SDS011;12319;49.204;8.116;2023-12-04T14:04:15;6.70;;;3.47;;
24163;SDS011;12319;49.204;8.116;2023-12-04T14:06:41;7.13;;;3.78;;
24163;SDS011;12319;49.204;8.116;2023-12-04T14:09:06;6.57;;;3.20;;
24163;SDS011;12319;49.204;8.116;2023-12-04T14:11:38;6.13;;;3.30;;
24163;SDS011;12319;49.204;8.116;2023-12-04T14:14:04;6.05;;;3.47;;
24163;SDS011;12319;49.204;8.116;2023-12-04T14:16:32;5.85;;;3.20;;
24163;SDS011;12319;49.204;8.116;2023-12-04T14:18:57;6.70;;;3.37;;
24163;SDS011;12319;49.204;8.116;2023-12-04T14:21:23;8.18;;;3.38;;
24163;SDS011;12319;49.204;8.116;2023-12-04T14:23:49;7.17;;;3.33;;
24163;SDS011;12319;49.204;8.116;2023-12-04T14:26:15;5.78;;;3.10;;
24163;SDS011;12319;49.204;8.116;2023-12-04T14:28:41;7.37;;;3.40;;
24163;SDS011;12319;49.204;8.116;2023-12-04T14:31:06;7.65;;;3.90;;
24163;SDS011;12319;49.204;8.116;2023-12-04T14:33:32;6.73;;;3.40;;
24163;SDS011;12319;49.204;8.116;2023-12-04T14:35:58;5.72;;;3.33;;
24163;SDS011;12319;49.204;8.116;2023-12-04T14:38:24;6.43;;;3.00;;
24163;SDS011;12319;49.204;8.116;2023-12-04T14:40:50;7.68;;;3.33;;